Time;durP1;ratioP1;P1;durP2;ratioP2;P2;SDS_P1;SDS_P2;PMS_P1;PMS_P2;Temp;Humidity;BMP_temperature;BMP_pressure;BME280_temperature;BME280_humidity;BME280_pressure;Samples;Min_cycle;Max_cycle;Signal;HPM_P1;HPM_P2
2022/10/31 00:01:09;;;;;;;;;;;13.40;99.90;;;;;;5073703;28;19967;-63
2022/10/31 00:03:37;;;;;;;;;;;13.40;99.90;;;;;;5073843;28;20455;-62
2022/10/31 00:06:05;;;;;;;;;;;13.40;99.90;;;;;;5097692;28;19989;-63
2022/10/31 00:08:33;;;;;;;;;;;13.40;99.90;;;;;;5094804;28;20073;-63
2022/10/31 00:11:00;;;;;;;;;;;13.40;99.90;;;;;;5073516;28;19971;-63
2022/10/31 00:13:28;;;;;;;;;;;13.40;99.90;;;;;;5092799;28;19967;-63
2022/10/31 00:15:56;;;;;;;;;;;13.30;99.90;;;;;;5094100;28;19967;-64
2022/10/31 00:18:25;;;;;;;;;;;13.40;99.90;;;;;;5093597;28;20019;-63
2022/10/31 00:20:59;;;;;;;;;;;13.40;99.90;;;;;;5093548;28;19966;-63
2022/10/31 00:23:26;;;;;;;;;;;13.40;99.90;;;;;;5093391;28;19966;-63
2022/10/31 00:25:54;;;;;;;;;;;13.50;99.90;;;;;;5081735;28;19977;-63
2022/10/31 00:28:22;;;;;;;;;;;13.50;99.90;;;;;;5073110;28;20047;-63
2022/10/31 00:30:49;;;;;;;;;;;13.50;99.90;;;;;;5073153;28;19971;-63
2022/10/31 00:33:17;;;;;;;;;;;13.50;99.90;;;;;;5073177;28;20346;-63
2022/10/31 00:35:51;;;;;;;;;;;13.60;99.90;;;;;;5090926;28;20058;-63
2022/10/31 00:38:18;;;;;;;;;;;13.60;99.90;;;;;;5108339;28;19967;-63
2022/10/31 00:40:46;;;;;;;;;;;13.60;99.90;;;;;;5113470;28;19974;-63
2022/10/31 00:43:14;;;;;;;;;;;13.70;99.90;;;;;;5083610;28;19968;-62
2022/10/31 00:45:42;;;;;;;;;;;13.70;99.90;;;;;;5072916;28;19971;-62
2022/10/31 00:48:09;;;;;;;;;;;13.70;99.90;;;;;;5072774;28;19979;-63
2022/10/31 00:50:39;;;;;;;;;;;13.70;99.90;;;;;;5071315;28;20135;-63
2022/10/31 00:53:08;;;;;;;;;;;13.70;99.90;;;;;;5073014;28;19968;-63
2022/10/31 00:55:36;;;;;;;;;;;13.70;99.90;;;;;;5072814;28;19967;-63
2022/10/31 00:58:04;;;;;;;;;;;13.60;99.90;;;;;;5072733;28;19968;-64
2022/10/31 01:00:32;;;;;;;;;;;13.70;99.90;;;;;;5089543;28;20429;-64
2022/10/31 01:03:00;;;;;;;;;;;13.60;99.90;;;;;;5091544;28;20368;-64
2022/10/31 01:05:28;;;;;;;;;;;13.70;99.90;;;;;;5101220;28;19968;-64
2022/10/31 01:07:56;;;;;;;;;;;13.60;99.90;;;;;;5103067;28;19989;-63
2022/10/31 01:10:25;;;;;;;;;;;13.70;99.90;;;;;;5113017;28;19971;-63
2022/10/31 01:12:53;;;;;;;;;;;13.60;99.90;;;;;;5078735;28;19978;-63
2022/10/31 01:15:22;;;;;;;;;;;13.70;99.90;;;;;;5072532;28;20447;-63
2022/10/31 01:17:50;;;;;;;;;;;13.60;99.90;;;;;;5089730;28;19966;-63
2022/10/31 01:20:18;;;;;;;;;;;13.50;99.90;;;;;;5092511;28;20507;-63
2022/10/31 01:22:46;;;;;;;;;;;13.50;99.90;;;;;;5092922;28;20001;-63
2022/10/31 01:25:13;;;;;;;;;;;13.50;99.90;;;;;;5092567;28;19968;-63
2022/10/31 01:27:42;;;;;;;;;;;13.40;99.90;;;;;;5076329;28;19993;-63
2022/10/31 01:30:11;;;;;;;;;;;13.40;99.90;;;;;;5071881;28;20069;-62
2022/10/31 01:32:38;;;;;;;;;;;13.30;99.90;;;;;;5073469;28;19973;-63
2022/10/31 01:35:06;;;;;;;;;;;13.20;99.90;;;;;;5099952;28;19973;-63
2022/10/31 01:37:34;;;;;;;;;;;13.10;99.90;;;;;;5101433;28;19967;-63
2022/10/31 01:40:02;;;;;;;;;;;13.10;99.90;;;;;;5112461;28;19967;-62
2022/10/31 01:42:29;;;;;;;;;;;13.20;99.90;;;;;;5112774;28;19967;-62
2022/10/31 01:45:00;;;;;;;;;;;13.20;99.90;;;;;;5112510;28;19967;-62
2022/10/31 01:47:33;;;;;;;;;;;13.30;99.90;;;;;;5113050;28;20347;-62
2022/10/31 01:50:03;;;;;;;;;;;13.30;99.90;;;;;;5102772;28;19972;-62
2022/10/31 01:52:33;;;;;;;;;;;13.30;99.90;;;;;;5072059;28;20062;-64
2022/10/31 01:55:03;;;;;;;;;;;13.40;99.90;;;;;;5072039;28;20071;-64
2022/10/31 01:57:32;;;;;;;;;;;13.40;99.90;;;;;;5072239;28;19967;-64
2022/10/31 02:00:02;;;;;;;;;;;13.40;99.90;;;;;;5071950;28;19972;-63
2022/10/31 02:02:30;;;;;;;;;;;13.40;99.90;;;;;;5074767;28;20337;-63
2022/10/31 02:05:00;;;;;;;;;;;13.40;99.90;;;;;;5091420;28;20065;-63
2022/10/31 02:07:31;;;;;;;;;;;13.40;99.90;;;;;;5094302;28;19970;-63
2022/10/31 02:09:59;;;;;;;;;;;13.30;99.90;;;;;;5078370;28;19968;-63
2022/10/31 02:12:27;;;;;;;;;;;13.30;99.90;;;;;;5078629;28;19975;-63
2022/10/31 02:14:55;;;;;;;;;;;13.30;99.90;;;;;;5078386;28;19978;-63
2022/10/31 02:17:24;;;;;;;;;;;13.30;99.90;;;;;;5078136;28;20022;-63
2022/10/31 02:19:55;;;;;;;;;;;13.20;99.90;;;;;;5078321;28;20351;-64
2022/10/31 02:22:25;;;;;;;;;;;13.20;99.90;;;;;;5078653;28;19970;-63
2022/10/31 02:25:09;;;;;;;;;;;13.20;99.90;;;;;;5078816;28;20447;-63
2022/10/31 02:27:52;;;;;;;;;;;13.20;99.90;;;;;;5078539;28;19972;-63
2022/10/31 02:30:22;;;;;;;;;;;13.30;99.90;;;;;;5087389;28;19967;-63
2022/10/31 02:32:55;;;;;;;;;;;13.30;99.90;;;;;;5098512;28;20058;-63
2022/10/31 02:35:30;;;;;;;;;;;13.30;99.90;;;;;;5106938;28;20450;-64
2022/10/31 02:38:01;;;;;;;;;;;13.30;99.90;;;;;;5113333;28;19966;-63
2022/10/31 02:40:31;;;;;;;;;;;13.40;99.90;;;;;;5117828;28;19967;-63
2022/10/31 02:43:03;;;;;;;;;;;13.30;99.90;;;;;;5082497;28;19969;-64
2022/10/31 02:45:34;;;;;;;;;;;13.30;99.90;;;;;;5098501;28;20068;-63
2022/10/31 02:48:06;;;;;;;;;;;13.20;99.90;;;;;;5098505;28;19976;-63
2022/10/31 02:50:34;;;;;;;;;;;13.20;99.90;;;;;;5098233;28;19982;-64
2022/10/31 02:53:03;;;;;;;;;;;13.20;99.90;;;;;;5098270;28;20002;-64
2022/10/31 02:55:45;;;;;;;;;;;13.20;99.90;;;;;;5098744;28;19971;-64
2022/10/31 02:58:14;;;;;;;;;;;13.10;99.90;;;;;;5090973;28;20598;-63
2022/10/31 03:00:45;;;;;;;;;;;13.10;99.90;;;;;;5077773;28;19966;-64
2022/10/31 03:03:21;;;;;;;;;;;13.10;99.90;;;;;;5077883;28;20420;-63
2022/10/31 03:05:54;;;;;;;;;;;13.10;99.90;;;;;;5096615;28;20457;-63
2022/10/31 03:08:24;;;;;;;;;;;13.00;99.90;;;;;;5100448;28;20012;-63
2022/10/31 03:10:55;;;;;;;;;;;13.00;99.90;;;;;;5098378;28;19968;-63
2022/10/31 03:13:30;;;;;;;;;;;13.10;99.90;;;;;;5096443;28;20065;-63
2022/10/31 03:16:02;;;;;;;;;;;13.10;99.90;;;;;;5082319;28;19968;-63
2022/10/31 03:18:33;;;;;;;;;;;13.20;99.90;;;;;;5074585;28;19968;-63
2022/10/31 03:21:04;;;;;;;;;;;13.20;99.90;;;;;;5074629;28;19990;-62
2022/10/31 03:23:33;;;;;;;;;;;13.20;99.90;;;;;;5074587;28;20059;-63
2022/10/31 03:26:01;;;;;;;;;;;13.10;99.90;;;;;;5074709;28;19976;-63
2022/10/31 03:28:31;;;;;;;;;;;13.10;99.90;;;;;;5074854;28;19971;-63
2022/10/31 03:31:00;;;;;;;;;;;12.90;99.90;;;;;;5074284;28;19974;-63
2022/10/31 03:33:36;;;;;;;;;;;12.90;99.90;;;;;;5084961;28;20054;-63
2022/10/31 03:36:05;;;;;;;;;;;13.00;99.90;;;;;;5103019;28;20003;-63
2022/10/31 03:38:35;;;;;;;;;;;12.80;99.90;;;;;;5114263;28;20749;-63
2022/10/31 03:41:04;;;;;;;;;;;12.70;99.90;;;;;;5114778;28;19967;-63
2022/10/31 03:43:33;;;;;;;;;;;12.60;99.90;;;;;;5113475;28;20039;-62
2022/10/31 03:46:01;;;;;;;;;;;12.50;99.90;;;;;;5114982;28;19971;-63
2022/10/31 03:48:29;;;;;;;;;;;12.30;99.90;;;;;;5113759;28;19971;-63
2022/10/31 03:51:02;;;;;;;;;;;12.20;99.90;;;;;;5073815;28;19974;-63
2022/10/31 03:53:33;;;;;;;;;;;12.10;99.90;;;;;;5075005;28;19987;-63
2022/10/31 03:56:02;;;;;;;;;;;12.10;99.90;;;;;;5074501;28;20421;-63
2022/10/31 03:58:33;;;;;;;;;;;12.00;99.90;;;;;;5074124;28;20062;-63
2022/10/31 04:01:02;;;;;;;;;;;11.90;99.90;;;;;;5073749;28;20468;-63
2022/10/31 04:03:32;;;;;;;;;;;12.10;99.90;;;;;;5073891;28;20342;-63
2022/10/31 04:06:03;;;;;;;;;;;12.00;99.90;;;;;;5092549;28;19974;-64
2022/10/31 04:08:32;;;;;;;;;;;12.00;99.90;;;;;;5090546;28;20067;-63
2022/10/31 04:11:02;;;;;;;;;;;12.10;99.90;;;;;;5073444;28;19972;-62
2022/10/31 04:13:31;;;;;;;;;;;12.10;99.90;;;;;;5073789;28;20454;-64
2022/10/31 04:15:59;;;;;;;;;;;12.30;99.90;;;;;;5073718;28;20003;-64
2022/10/31 04:18:27;;;;;;;;;;;12.40;99.90;;;;;;5073300;28;20062;-63
2022/10/31 04:21:02;;;;;;;;;;;12.50;99.90;;;;;;5073438;28;20422;-62
2022/10/31 04:23:29;;;;;;;;;;;12.60;99.90;;;;;;5081747;28;19968;-62
2022/10/31 04:25:57;;;;;;;;;;;12.70;99.90;;;;;;5093588;28;19967;-62
2022/10/31 04:28:25;;;;;;;;;;;12.80;99.90;;;;;;5093628;28;19967;-63
2022/10/31 04:30:53;;;;;;;;;;;12.90;99.90;;;;;;5093236;28;19968;-62
2022/10/31 04:33:20;;;;;;;;;;;12.90;99.90;;;;;;5093767;28;20443;-63
2022/10/31 04:35:48;;;;;;;;;;;12.90;99.90;;;;;;5099118;28;19963;-62
2022/10/31 04:38:17;;;;;;;;;;;12.90;99.90;;;;;;5110690;28;20026;-63
2022/10/31 04:40:45;;;;;;;;;;;12.80;99.90;;;;;;5082820;28;19995;-63
2022/10/31 04:43:13;;;;;;;;;;;12.80;99.90;;;;;;5073029;28;19968;-62
2022/10/31 04:45:41;;;;;;;;;;;12.80;99.90;;;;;;5072891;28;19966;-63
2022/10/31 04:48:09;;;;;;;;;;;12.80;99.90;;;;;;5072954;28;19967;-62
2022/10/31 04:50:36;;;;;;;;;;;12.80;99.90;;;;;;5072890;28;20423;-63
2022/10/31 04:53:04;;;;;;;;;;;12.80;99.90;;;;;;5072915;28;19968;-63
2022/10/31 04:55:33;;;;;;;;;;;12.60;99.90;;;;;;5085926;28;19967;-63
2022/10/31 04:58:01;;;;;;;;;;;12.50;99.90;;;;;;5086346;28;19974;-62
2022/10/31 05:00:30;;;;;;;;;;;12.40;99.90;;;;;;5091028;28;19974;-63
2022/10/31 05:02:58;;;;;;;;;;;12.10;99.90;;;;;;5092533;28;20337;-63
2022/10/31 05:05:27;;;;;;;;;;;12.00;99.90;;;;;;5100135;28;20332;-63
2022/10/31 05:07:55;;;;;;;;;;;11.90;99.90;;;;;;5107353;28;20482;-63
2022/10/31 05:10:24;;;;;;;;;;;11.80;99.90;;;;;;5112959;28;20447;-62
2022/10/31 05:12:54;;;;;;;;;;;11.80;99.90;;;;;;5113169;28;19967;-62
2022/10/31 05:15:22;;;;;;;;;;;11.70;99.90;;;;;;5089760;28;19967;-63
2022/10/31 05:17:50;;;;;;;;;;;11.70;99.90;;;;;;5092522;28;19978;-63
2022/10/31 05:20:19;;;;;;;;;;;11.70;99.90;;;;;;5092416;28;19978;-63
2022/10/31 05:22:48;;;;;;;;;;;11.60;99.90;;;;;;5075864;28;19968;-64
2022/10/31 05:25:16;;;;;;;;;;;11.70;99.90;;;;;;5072276;28;20462;-64
2022/10/31 05:27:44;;;;;;;;;;;11.60;99.90;;;;;;5074556;28;19970;-62
2022/10/31 05:30:15;;;;;;;;;;;11.60;99.90;;;;;;5071131;28;20051;-63
2022/10/31 05:32:43;;;;;;;;;;;11.60;99.90;;;;;;5082724;28;19974;-62
2022/10/31 05:35:12;;;;;;;;;;;11.70;99.90;;;;;;5073701;28;20355;-63
2022/10/31 05:37:40;;;;;;;;;;;11.80;99.90;;;;;;5073571;28;19964;-63
2022/10/31 05:40:09;;;;;;;;;;;11.70;99.90;;;;;;5071475;28;20022;-63
2022/10/31 05:42:39;;;;;;;;;;;11.70;99.90;;;;;;5071323;28;19964;-63
2022/10/31 05:45:07;;;;;;;;;;;11.70;99.90;;;;;;5099584;22;20429;-68
2022/10/31 05:47:36;;;;;;;;;;;11.80;99.90;;;;;;5057107;28;20067;-67
2022/10/31 05:50:05;;;;;;;;;;;12.00;99.90;;;;;;5053404;28;19964;-69
2022/10/31 05:52:33;;;;;;;;;;;11.90;99.90;;;;;;5046409;28;19972;-68
2022/10/31 05:55:00;;;;;;;;;;;11.90;99.90;;;;;;5042204;28;19976;-66
2022/10/31 05:57:28;;;;;;;;;;;11.90;99.90;;;;;;5035573;28;19972;-69
2022/10/31 05:59:56;;;;;;;;;;;11.90;99.90;;;;;;5041263;28;19976;-69
2022/10/31 06:02:25;;;;;;;;;;;11.90;99.90;;;;;;5035675;28;19967;-69
2022/10/31 06:04:54;;;;;;;;;;;12.00;99.90;;;;;;5050771;28;19971;-69
2022/10/31 06:07:21;;;;;;;;;;;12.10;99.90;;;;;;5051859;28;19964;-69
2022/10/31 06:09:49;;;;;;;;;;;12.10;99.90;;;;;;5050307;28;19964;-68
2022/10/31 06:12:17;;;;;;;;;;;12.00;99.90;;;;;;5049944;28;20347;-69
2022/10/31 06:14:44;;;;;;;;;;;12.00;99.90;;;;;;5048182;28;19964;-68
2022/10/31 06:17:12;;;;;;;;;;;12.10;99.90;;;;;;5044623;28;19980;-68
2022/10/31 06:19:40;;;;;;;;;;;12.10;99.90;;;;;;5052961;28;20010;-67
2022/10/31 06:22:11;;;;;;;;;;;12.10;99.90;;;;;;5055210;28;20014;-69
2022/10/31 06:24:39;;;;;;;;;;;12.10;99.90;;;;;;5051054;28;19972;-69
2022/10/31 06:27:06;;;;;;;;;;;12.10;99.90;;;;;;5054706;28;19986;-69
2022/10/31 06:29:34;;;;;;;;;;;12.20;99.90;;;;;;5053682;28;20467;-66
2022/10/31 06:32:02;;;;;;;;;;;12.20;99.90;;;;;;5057545;28;20011;-69
2022/10/31 06:34:30;;;;;;;;;;;12.10;99.90;;;;;;5054003;28;19976;-68
2022/10/31 06:36:57;;;;;;;;;;;12.20;99.90;;;;;;5054992;28;19976;-68
2022/10/31 06:39:26;;;;;;;;;;;12.30;99.90;;;;;;5053075;28;19972;-68
2022/10/31 06:41:54;;;;;;;;;;;12.40;99.90;;;;;;5055998;28;19972;-67
2022/10/31 06:44:22;;;;;;;;;;;12.60;99.90;;;;;;5049869;28;19967;-69
2022/10/31 06:46:49;;;;;;;;;;;12.60;99.90;;;;;;5053168;28;19970;-66
2022/10/31 06:49:17;;;;;;;;;;;12.80;99.90;;;;;;5051650;28;20444;-68
2022/10/31 06:51:47;;;;;;;;;;;12.80;99.90;;;;;;5058728;28;19990;-68
2022/10/31 06:54:15;;;;;;;;;;;12.80;99.90;;;;;;5058565;28;19972;-68
2022/10/31 06:56:46;;;;;;;;;;;12.80;99.90;;;;;;5055696;28;20875;-68
2022/10/31 06:59:13;;;;;;;;;;;12.90;99.90;;;;;;5052792;28;19972;-67
2022/10/31 07:01:41;;;;;;;;;;;13.10;99.90;;;;;;5056622;28;19972;-67
2022/10/31 07:04:09;;;;;;;;;;;13.20;99.90;;;;;;5053009;28;19965;-71
2022/10/31 07:06:37;;;;;;;;;;;13.30;99.90;;;;;;5048172;28;20030;-67
2022/10/31 07:09:05;;;;;;;;;;;13.30;99.90;;;;;;5053347;28;19979;-69
2022/10/31 07:11:33;;;;;;;;;;;13.30;99.90;;;;;;5052926;28;19969;-69
2022/10/31 07:14:02;;;;;;;;;;;13.30;99.90;;;;;;5054659;28;20010;-69
2022/10/31 07:16:30;;;;;;;;;;;13.40;99.90;;;;;;5051951;28;19968;-69
2022/10/31 07:18:57;;;;;;;;;;;13.40;99.90;;;;;;5049741;28;19968;-69
2022/10/31 07:21:25;;;;;;;;;;;13.50;99.90;;;;;;5051425;28;20515;-69
2022/10/31 07:23:53;;;;;;;;;;;13.50;99.90;;;;;;5052077;28;19972;-68
2022/10/31 07:26:21;;;;;;;;;;;13.50;99.90;;;;;;5051643;28;20441;-69
2022/10/31 07:28:49;;;;;;;;;;;13.60;99.90;;;;;;5048374;28;19970;-68
2022/10/31 07:31:18;;;;;;;;;;;13.60;99.90;;;;;;5050750;28;19972;-69
2022/10/31 07:33:46;;;;;;;;;;;13.60;99.90;;;;;;5052600;28;19964;-69
2022/10/31 07:36:13;;;;;;;;;;;13.60;99.90;;;;;;5063403;28;19974;-68
2022/10/31 07:38:41;;;;;;;;;;;13.70;99.90;;;;;;5074388;28;19968;-69
2022/10/31 07:41:09;;;;;;;;;;;13.80;99.90;;;;;;5073899;28;20443;-69
2022/10/31 07:43:37;;;;;;;;;;;13.90;99.90;;;;;;5074556;28;20083;-69
2022/10/31 07:46:05;;;;;;;;;;;14.00;99.90;;;;;;5073900;28;20058;-69
2022/10/31 07:48:34;;;;;;;;;;;14.20;99.90;;;;;;5044888;28;19975;-71
2022/10/31 07:51:01;;;;;;;;;;;14.20;99.90;;;;;;5033955;28;19974;-69
2022/10/31 07:53:29;;;;;;;;;;;14.30;99.90;;;;;;5034041;28;20489;-69
2022/10/31 07:55:57;;;;;;;;;;;14.40;99.90;;;;;;5033531;28;20363;-69
2022/10/31 07:58:24;;;;;;;;;;;14.40;99.90;;;;;;5033889;28;20008;-68
2022/10/31 08:00:52;;;;;;;;;;;14.50;99.90;;;;;;5033210;28;20085;-69
2022/10/31 08:03:20;;;;;;;;;;;14.60;99.90;;;;;;5034192;28;19969;-69
2022/10/31 08:05:49;;;;;;;;;;;14.60;99.90;;;;;;5056880;28;19974;-69
2022/10/31 08:08:17;;;;;;;;;;;14.60;99.90;;;;;;5070811;28;19975;-69
2022/10/31 08:10:45;;;;;;;;;;;14.60;99.90;;;;;;5073601;28;19982;-68
2022/10/31 08:13:13;;;;;;;;;;;14.70;99.90;;;;;;5073707;28;19968;-69
2022/10/31 08:15:42;;;;;;;;;;;14.70;99.90;;;;;;5073452;28;20005;-68
2022/10/31 08:18:12;;;;;;;;;;;14.90;99.90;;;;;;5059081;28;20038;-68
2022/10/31 08:20:40;;;;;;;;;;;15.00;99.90;;;;;;5053256;28;19974;-68
2022/10/31 08:23:09;;;;;;;;;;;15.10;99.90;;;;;;5053385;28;19981;-69
2022/10/31 08:25:37;;;;;;;;;;;15.20;99.90;;;;;;5053330;28;19972;-69
2022/10/31 08:28:06;;;;;;;;;;;15.40;99.90;;;;;;5053146;28;19971;-70
2022/10/31 08:30:35;;;;;;;;;;;15.40;99.90;;;;;;5052789;28;19968;-70
2022/10/31 08:33:03;;;;;;;;;;;15.50;99.90;;;;;;5043110;28;20071;-70
2022/10/31 08:35:30;;;;;;;;;;;15.40;99.90;;;;;;5053748;28;19967;-69
2022/10/31 08:37:58;;;;;;;;;;;15.30;99.90;;;;;;5067981;28;19972;-69
2022/10/31 08:40:30;;;;;;;;;;;15.00;99.90;;;;;;5070251;28;19967;-69
2022/10/31 08:42:58;;;;;;;;;;;15.10;99.90;;;;;;5053250;28;19972;-69
2022/10/31 08:45:26;;;;;;;;;;;15.20;99.90;;;;;;5052609;28;19975;-69
2022/10/31 08:47:57;;;;;;;;;;;15.10;99.90;;;;;;5052896;28;20097;-69
2022/10/31 08:50:26;;;;;;;;;;;15.10;99.90;;;;;;5051566;28;20021;-69
2022/10/31 08:52:53;;;;;;;;;;;15.30;99.90;;;;;;5032855;28;20062;-71
2022/10/31 08:55:38;;;;;;;;;;;15.50;99.90;;;;;;5033128;28;19975;-70
2022/10/31 08:58:06;;;;;;;;;;;15.70;99.90;;;;;;5032943;28;20343;-69
2022/10/31 09:00:34;;;;;;;;;;;15.90;99.90;;;;;;5032754;28;19969;-70
2022/10/31 09:03:03;;;;;;;;;;;16.00;99.90;;;;;;5033590;28;20067;-70
2022/10/31 09:05:31;;;;;;;;;;;16.10;99.90;;;;;;5054508;28;19972;-70
2022/10/31 09:07:59;;;;;;;;;;;16.10;99.90;;;;;;5057733;28;20413;-70
2022/10/31 09:10:28;;;;;;;;;;;16.00;99.90;;;;;;5052467;28;19975;-70
2022/10/31 09:12:58;;;;;;;;;;;16.00;99.90;;;;;;5051532;28;19974;-68
2022/10/31 09:15:26;;;;;;;;;;;16.10;99.90;;;;;;5052344;28;19973;-70
2022/10/31 09:17:54;;;;;;;;;;;16.10;99.90;;;;;;5052543;28;19966;-69
2022/10/31 09:20:22;;;;;;;;;;;16.10;99.90;;;;;;5050230;28;19973;-69
2022/10/31 09:22:56;;;;;;;;;;;16.10;99.90;;;;;;5032675;28;20066;-69
2022/10/31 09:25:24;;;;;;;;;;;16.30;99.90;;;;;;5032284;28;20079;-71
2022/10/31 09:27:51;;;;;;;;;;;16.20;99.90;;;;;;5032455;28;19967;-69
2022/10/31 09:30:20;;;;;;;;;;;16.30;99.90;;;;;;5032322;28;19986;-69
2022/10/31 09:32:48;;;;;;;;;;;16.30;99.90;;;;;;5032356;28;20083;-71
2022/10/31 09:35:16;;;;;;;;;;;16.20;99.90;;;;;;5050884;28;20071;-69
2022/10/31 09:37:48;;;;;;;;;;;16.20;99.90;;;;;;5065100;28;20000;-69
2022/10/31 09:40:16;;;;;;;;;;;16.30;99.90;;;;;;5068132;28;19972;-70
2022/10/31 09:42:49;;;;;;;;;;;16.40;99.90;;;;;;5052274;28;19972;-69
2022/10/31 09:45:19;;;;;;;;;;;16.50;99.90;;;;;;5051719;28;19974;-69
2022/10/31 09:47:53;;;;;;;;;;;16.50;99.90;;;;;;5052104;28;19967;-69
2022/10/31 09:50:22;;;;;;;;;;;16.60;99.90;;;;;;5051815;28;19977;-70
2022/10/31 09:52:55;;;;;;;;;;;16.70;99.90;;;;;;5052046;28;20061;-67
2022/10/31 09:55:27;;;;;;;;;;;16.70;99.90;;;;;;5050603;28;19973;-68
2022/10/31 09:57:55;;;;;;;;;;;16.70;99.90;;;;;;5032258;28;20058;-69
2022/10/31 10:00:23;;;;;;;;;;;16.60;99.90;;;;;;5031898;28;20347;-70
2022/10/31 10:02:54;;;;;;;;;;;16.60;99.90;;;;;;5031801;28;19974;-70
2022/10/31 10:05:23;;;;;;;;;;;16.70;99.90;;;;;;5051385;28;19967;-70
2022/10/31 10:07:56;;;;;;;;;;;16.70;99.90;;;;;;5065350;28;19974;-70
2022/10/31 10:10:27;;;;;;;;;;;16.70;99.90;;;;;;5066852;28;20071;-70
2022/10/31 10:13:06;;;;;;;;;;;16.70;99.90;;;;;;5031898;28;19974;-69
2022/10/31 10:15:49;;;;;;;;;;;16.70;99.90;;;;;;5031509;28;20081;-69
2022/10/31 10:18:24;;;;;;;;;;;16.60;99.90;;;;;;5031886;28;19969;-70
2022/10/31 10:20:57;;;;;;;;;;;16.80;99.90;;;;;;5031697;28;20381;-68
2022/10/31 10:23:32;;;;;;;;;;;16.90;99.90;;;;;;5033196;28;20011;-70
2022/10/31 10:26:02;;;;;;;;;;;17.00;99.90;;;;;;5042991;28;19963;-69
2022/10/31 10:28:39;;;;;;;;;;;17.00;99.90;;;;;;5055831;28;20021;-70
2022/10/31 10:31:09;;;;;;;;;;;16.90;99.90;;;;;;5055432;28;20067;-69
2022/10/31 10:33:40;;;;;;;;;;;16.90;99.90;;;;;;5055616;28;19967;-69
2022/10/31 10:36:11;;;;;;;;;;;16.90;99.90;;;;;;5064196;28;20066;-69
2022/10/31 10:38:39;;;;;;;;;;;17.00;99.90;;;;;;5035901;28;19978;-69
2022/10/31 10:41:13;;;;;;;;;;;16.90;99.90;;;;;;5035675;28;20367;-69
2022/10/31 10:43:41;;;;;;;;;;;17.00;99.90;;;;;;5035604;28;20425;-70
2022/10/31 10:49:09;;;;;;;;;;;17.20;99.90;;;;;;5035430;28;19967;-69
2022/10/31 10:51:39;;;;;;;;;;;17.30;99.90;;;;;;5035150;28;20066;-69
2022/10/31 10:54:40;;;;;;;;;;;17.50;99.90;;;;;;5035674;28;20337;-69
2022/10/31 10:57:12;;;;;;;;;;;17.60;99.90;;;;;;5035017;28;19967;-69
2022/10/31 10:59:40;;;;;;;;;;;17.60;99.90;;;;;;5045571;28;19998;-69
2022/10/31 11:02:18;;;;;;;;;;;17.70;99.90;;;;;;5055102;28;20081;-69
2022/10/31 11:04:50;;;;;;;;;;;17.80;99.90;;;;;;5047896;28;19998;-69
2022/10/31 11:07:18;;;;;;;;;;;18.00;99.90;;;;;;5045204;28;19974;-69
2022/10/31 11:09:46;;;;;;;;;;;18.10;99.90;;;;;;5034775;28;20415;-70
2022/10/31 11:12:18;;;;;;;;;;;18.20;99.90;;;;;;5034876;28;19971;-68
2022/10/31 11:14:47;;;;;;;;;;;18.40;99.90;;;;;;5035183;28;19978;-70
2022/10/31 11:17:26;;;;;;;;;;;18.50;99.90;;;;;;5043051;28;20013;-69
2022/10/31 11:20:03;;;;;;;;;;;18.50;99.90;;;;;;5054453;28;19970;-68
2022/10/31 11:22:30;;;;;;;;;;;18.50;99.90;;;;;;5054718;28;20491;-69
2022/10/31 11:24:58;;;;;;;;;;;18.40;99.90;;;;;;5054634;28;20062;-69
2022/10/31 11:27:26;;;;;;;;;;;18.60;99.90;;;;;;5045239;28;19967;-69
2022/10/31 11:30:04;;;;;;;;;;;18.70;99.90;;;;;;5053980;28;19963;-69
2022/10/31 11:32:32;;;;;;;;;;;18.90;99.90;;;;;;5066190;28;20006;-69
2022/10/31 11:35:01;;;;;;;;;;;19.10;99.90;;;;;;5073391;28;19977;-69
2022/10/31 11:37:34;;;;;;;;;;;19.10;99.90;;;;;;5074112;28;19973;-69
2022/10/31 11:40:04;;;;;;;;;;;19.30;99.90;;;;;;5074182;28;20009;-69
2022/10/31 11:42:38;;;;;;;;;;;19.50;99.90;;;;;;5067183;28;20009;-70
2022/10/31 11:45:08;;;;;;;;;;;19.60;99.90;;;;;;5070543;23;19998;-64
2022/10/31 11:47:36;;;;;;;;;;;19.80;99.90;;;;;;5068665;28;19969;-65
2022/10/31 11:50:10;;;;;;;;;;;19.90;99.90;;;;;;5069184;28;19973;-64
2022/10/31 11:52:40;;;;;;;;;;;19.90;99.90;;;;;;5074397;28;20498;-65
2022/10/31 11:55:15;;;;;;;;;;;19.90;99.90;;;;;;5068469;28;19973;-64
2022/10/31 11:57:44;;;;;;;;;;;20.00;99.90;;;;;;5053996;28;20062;-64
2022/10/31 12:00:22;;;;;;;;;;;19.80;99.90;;;;;;5045687;28;19967;-64
2022/10/31 12:02:49;;;;;;;;;;;19.80;99.90;;;;;;5047385;28;19967;-65
2022/10/31 12:05:19;;;;;;;;;;;19.70;99.90;;;;;;5047729;28;20071;-65
2022/10/31 12:07:49;;;;;;;;;;;19.70;99.90;;;;;;5033717;28;19973;-65
2022/10/31 12:10:18;;;;;;;;;;;19.70;99.90;;;;;;5033604;28;19971;-65
2022/10/31 12:12:53;;;;;;;;;;;19.70;99.90;;;;;;5033997;28;20502;-65
2022/10/31 12:15:28;;;;;;;;;;;19.60;99.90;;;;;;5038710;28;19985;-64
2022/10/31 12:18:01;;;;;;;;;;;19.60;99.90;;;;;;5053668;28;19973;-64
2022/10/31 12:20:34;;;;;;;;;;;19.60;99.90;;;;;;5053463;28;19971;-64
2022/10/31 12:23:07;;;;;;;;;;;19.70;99.90;;;;;;5053641;28;20368;-64
2022/10/31 12:25:40;;;;;;;;;;;20.00;99.90;;;;;;5052752;28;19995;-64
2022/10/31 12:28:15;;;;;;;;;;;20.30;99.90;;;;;;5053377;28;19967;-64
2022/10/31 12:30:49;;;;;;;;;;;20.50;99.90;;;;;;5034241;28;20053;-65
2022/10/31 12:33:27;;;;;;;;;;;20.90;99.90;;;;;;5050621;28;19973;-65
2022/10/31 12:36:00;;;;;;;;;;;21.10;99.90;;;;;;5044317;28;19971;-65
2022/10/31 12:38:36;;;;;;;;;;;21.50;99.90;;;;;;5033442;28;20058;-64
2022/10/31 12:41:11;;;;;;;;;;;21.60;99.90;;;;;;5033330;28;20062;-65
2022/10/31 12:43:43;;;;;;;;;;;22.00;99.90;;;;;;5033342;28;19968;-65
2022/10/31 12:46:14;;;;;;;;;;;22.10;99.90;;;;;;5033237;28;19973;-65
2022/10/31 12:48:53;;;;;;;;;;;22.10;99.90;;;;;;5033287;28;20069;-64
2022/10/31 12:51:30;;;;;;;;;;;22.00;99.90;;;;;;5033094;28;20066;-65
2022/10/31 12:54:09;;;;;;;;;;;21.90;99.90;;;;;;5033127;28;19981;-64
2022/10/31 12:56:42;;;;;;;;;;;21.70;99.90;;;;;;5032921;28;20428;-64
2022/10/31 12:59:14;;;;;;;;;;;21.60;99.90;;;;;;5032938;28;20013;-65
2022/10/31 13:01:47;;;;;;;;;;;21.50;99.90;;;;;;5033303;28;19972;-65
2022/10/31 13:04:17;;;;;;;;;;;21.60;99.90;;;;;;5032809;28;19971;-65
2022/10/31 13:06:48;;;;;;;;;;;21.50;99.90;;;;;;5032999;28;19967;-65
2022/10/31 13:09:18;;;;;;;;;;;21.40;99.90;;;;;;5032881;28;20000;-65
2022/10/31 13:11:48;;;;;;;;;;;21.10;99.90;;;;;;5032649;28;20050;-64
2022/10/31 13:14:20;;;;;;;;;;;20.70;99.90;;;;;;5032939;28;20459;-64
2022/10/31 13:16:48;;;;;;;;;;;20.50;99.90;;;;;;5032401;28;20391;-64
2022/10/31 13:19:17;;;;;;;;;;;20.30;99.90;;;;;;5032763;28;19978;-65
2022/10/31 13:21:51;;;;;;;;;;;20.10;99.90;;;;;;5032379;28;19967;-65
2022/10/31 13:24:23;;;;;;;;;;;20.00;99.90;;;;;;5032545;28;20634;-65
2022/10/31 13:26:52;;;;;;;;;;;19.90;99.90;;;;;;5047170;28;20335;-64
2022/10/31 13:29:24;;;;;;;;;;;19.70;99.90;;;;;;5044190;28;20061;-64
2022/10/31 13:31:56;;;;;;;;;;;19.50;99.90;;;;;;5043971;28;20424;-65
2022/10/31 13:34:26;;;;;;;;;;;19.50;99.90;;;;;;5044062;28;19967;-65
2022/10/31 13:37:02;;;;;;;;;;;19.40;99.90;;;;;;5032062;28;19974;-64
2022/10/31 13:39:35;;;;;;;;;;;19.40;99.90;;;;;;5032489;28;20010;-63
2022/10/31 13:42:05;;;;;;;;;;;19.30;99.90;;;;;;5032253;28;19967;-64
2022/10/31 13:44:37;;;;;;;;;;;19.40;99.90;;;;;;5032461;28;19993;-65
2022/10/31 13:47:21;;;;;;;;;;;19.40;99.90;;;;;;5031859;28;20006;-64
2022/10/31 13:49:48;;;;;;;;;;;19.40;99.90;;;;;;5032051;28;20321;-64
2022/10/31 13:52:17;;;;;;;;;;;19.30;99.90;;;;;;5032068;28;19971;-64
2022/10/31 13:54:47;;;;;;;;;;;19.20;99.90;;;;;;5032288;28;19971;-65
2022/10/31 13:57:19;;;;;;;;;;;19.20;99.90;;;;;;5031862;28;20359;-65
2022/10/31 13:59:51;;;;;;;;;;;19.00;99.90;;;;;;5036303;28;19962;-64
2022/10/31 14:02:22;;;;;;;;;;;19.00;99.90;;;;;;5043512;28;19973;-65
2022/10/31 14:04:52;;;;;;;;;;;18.90;99.90;;;;;;5051882;28;20445;-64
2022/10/31 14:07:22;;;;;;;;;;;18.90;99.90;;;;;;5046535;28;19999;-65
2022/10/31 14:09:55;;;;;;;;;;;18.80;99.90;;;;;;5031338;28;19978;-64
2022/10/31 14:12:25;;;;;;;;;;;18.70;99.90;;;;;;5031592;28;20058;-64
2022/10/31 14:14:56;;;;;;;;;;;18.60;99.90;;;;;;5046930;28;20029;-64
2022/10/31 14:17:24;;;;;;;;;;;18.60;99.90;;;;;;5033004;28;19971;-64
2022/10/31 14:20:04;;;;;;;;;;;18.50;99.90;;;;;;5031726;28;19971;-64
2022/10/31 14:22:32;;;;;;;;;;;18.60;99.90;;;;;;5031976;28;19967;-64
2022/10/31 14:25:18;;;;;;;;;;;18.60;99.90;;;;;;5031787;28;19971;-64
2022/10/31 14:27:47;;;;;;;;;;;18.60;99.90;;;;;;5011304;28;20062;-64
2022/10/31 14:30:16;;;;;;;;;;;18.70;99.90;;;;;;5036178;28;20050;-64
2022/10/31 14:32:44;;;;;;;;;;;18.80;99.90;;;;;;5044489;28;19970;-64
2022/10/31 14:35:15;;;;;;;;;;;18.90;99.90;;;;;;5051759;28;19977;-64